sensor_id;sensor_type;location;lat;lon;timestamp;P1;durP1;ratioP1;P2;durP2;ratioP2
29370;SDS011;16357;52.188;7.838;2023-07-13T00:02:11;5.80;;;2.55;;
29370;SDS011;16357;52.188;7.838;2023-07-13T00:04:37;3.88;;;2.10;;
29370;SDS011;16357;52.188;7.838;2023-07-13T00:07:04;3.45;;;2.05;;
29370;SDS011;16357;52.188;7.838;2023-07-13T00:09:31;2.70;;;2.03;;
29370;SDS011;16357;52.188;7.838;2023-07-13T00:11:57;3.10;;;1.83;;
29370;SDS011;16357;52.188;7.838;2023-07-13T00:14:24;4.20;;;2.30;;
29370;SDS011;16357;52.188;7.838;2023-07-13T00:16:54;3.60;;;2.10;;
29370;SDS011;16357;52.188;7.838;2023-07-13T00:19:21;4.38;;;2.00;;
29370;SDS011;16357;52.188;7.838;2023-07-13T00:21:47;3.13;;;1.92;;
29370;SDS011;16357;52.188;7.838;2023-07-13T00:24:14;3.90;;;2.03;;
29370;SDS011;16357;52.188;7.838;2023-07-13T00:26:43;3.67;;;2.00;;
29370;SDS011;16357;52.188;7.838;2023-07-13T00:29:13;5.10;;;2.10;;
29370;SDS011;16357;52.188;7.838;2023-07-13T00:31:40;5.47;;;2.13;;
29370;SDS011;16357;52.188;7.838;2023-07-13T00:34:06;3.60;;;2.10;;
29370;SDS011;16357;52.188;7.838;2023-07-13T00:36:33;3.85;;;2.25;;
29370;SDS011;16357;52.188;7.838;2023-07-13T00:39:00;4.32;;;2.08;;
29370;SDS011;16357;52.188;7.838;2023-07-13T00:41:26;3.97;;;2.50;;
29370;SDS011;16357;52.188;7.838;2023-07-13T00:43:53;3.70;;;2.15;;
29370;SDS011;16357;52.188;7.838;2023-07-13T00:46:21;5.75;;;2.50;;
29370;SDS011;16357;52.188;7.838;2023-07-13T00:48:51;3.75;;;2.20;;
29370;SDS011;16357;52.188;7.838;2023-07-13T00:51:25;4.15;;;2.28;;
29370;SDS011;16357;52.188;7.838;2023-07-13T00:53:58;4.45;;;2.22;;
29370;SDS011;16357;52.188;7.838;2023-07-13T00:56:29;5.45;;;2.40;;
29370;SDS011;16357;52.188;7.838;2023-07-13T00:58:58;4.07;;;2.20;;
29370;SDS011;16357;52.188;7.838;2023-07-13T01:01:26;5.05;;;2.35;;
29370;SDS011;16357;52.188;7.838;2023-07-13T01:03:53;4.00;;;2.35;;
29370;SDS011;16357;52.188;7.838;2023-07-13T01:06:20;4.18;;;1.85;;
29370;SDS011;16357;52.188;7.838;2023-07-13T01:08:46;5.50;;;2.53;;
29370;SDS011;16357;52.188;7.838;2023-07-13T01:11:13;5.20;;;2.47;;
29370;SDS011;16357;52.188;7.838;2023-07-13T01:13:46;6.15;;;2.15;;
29370;SDS011;16357;52.188;7.838;2023-07-13T01:16:14;4.57;;;2.35;;
29370;SDS011;16357;52.188;7.838;2023-07-13T01:18:45;4.00;;;2.50;;
29370;SDS011;16357;52.188;7.838;2023-07-13T01:21:12;3.53;;;2.45;;
29370;SDS011;16357;52.188;7.838;2023-07-13T01:23:38;5.07;;;2.60;;
29370;SDS011;16357;52.188;7.838;2023-07-13T01:26:05;5.25;;;2.58;;
29370;SDS011;16357;52.188;7.838;2023-07-13T01:28:31;6.03;;;3.08;;
29370;SDS011;16357;52.188;7.838;2023-07-13T01:31:03;4.53;;;2.47;;
29370;SDS011;16357;52.188;7.838;2023-07-13T01:33:30;5.10;;;2.42;;
29370;SDS011;16357;52.188;7.838;2023-07-13T01:35:57;5.55;;;2.83;;
29370;SDS011;16357;52.188;7.838;2023-07-13T01:38:23;8.18;;;2.75;;
29370;SDS011;16357;52.188;7.838;2023-07-13T01:40:50;3.60;;;2.70;;
29370;SDS011;16357;52.188;7.838;2023-07-13T01:43:18;4.72;;;2.40;;
29370;SDS011;16357;52.188;7.838;2023-07-13T01:45:45;5.60;;;2.22;;
29370;SDS011;16357;52.188;7.838;2023-07-13T01:48:12;8.27;;;3.05;;
29370;SDS011;16357;52.188;7.838;2023-07-13T01:50:39;5.38;;;3.00;;
29370;SDS011;16357;52.188;7.838;2023-07-13T01:53:06;4.82;;;2.70;;
29370;SDS011;16357;52.188;7.838;2023-07-13T01:55:33;4.82;;;2.72;;
29370;SDS011;16357;52.188;7.838;2023-07-13T01:58:00;6.03;;;2.67;;
29370;SDS011;16357;52.188;7.838;2023-07-13T02:00:27;4.28;;;2.38;;
29370;SDS011;16357;52.188;7.838;2023-07-13T02:02:53;6.78;;;2.75;;
29370;SDS011;16357;52.188;7.838;2023-07-13T02:05:23;3.78;;;2.42;;
29370;SDS011;16357;52.188;7.838;2023-07-13T02:07:50;5.00;;;2.55;;
29370;SDS011;16357;52.188;7.838;2023-07-13T02:10:16;5.72;;;2.40;;
29370;SDS011;16357;52.188;7.838;2023-07-13T02:12:43;5.32;;;2.60;;
29370;SDS011;16357;52.188;7.838;2023-07-13T02:15:10;4.47;;;2.53;;
29370;SDS011;16357;52.188;7.838;2023-07-13T02:17:37;6.88;;;2.72;;
29370;SDS011;16357;52.188;7.838;2023-07-13T02:20:04;6.32;;;2.30;;
29370;SDS011;16357;52.188;7.838;2023-07-13T02:22:31;4.68;;;2.50;;
29370;SDS011;16357;52.188;7.838;2023-07-13T02:24:58;8.70;;;2.78;;
29370;SDS011;16357;52.188;7.838;2023-07-13T02:27:24;6.47;;;2.50;;
29370;SDS011;16357;52.188;7.838;2023-07-13T02:29:51;9.55;;;2.45;;
29370;SDS011;16357;52.188;7.838;2023-07-13T02:32:18;6.15;;;2.72;;
29370;SDS011;16357;52.188;7.838;2023-07-13T02:34:45;3.53;;;2.25;;
29370;SDS011;16357;52.188;7.838;2023-07-13T02:37:11;8.10;;;2.30;;
29370;SDS011;16357;52.188;7.838;2023-07-13T02:39:38;5.40;;;2.58;;
29370;SDS011;16357;52.188;7.838;2023-07-13T02:42:04;5.50;;;2.45;;
29370;SDS011;16357;52.188;7.838;2023-07-13T02:44:31;6.70;;;2.55;;
29370;SDS011;16357;52.188;7.838;2023-07-13T02:46:58;4.07;;;2.45;;
29370;SDS011;16357;52.188;7.838;2023-07-13T02:49:24;7.63;;;2.47;;
29370;SDS011;16357;52.188;7.838;2023-07-13T02:51:51;5.30;;;2.35;;
29370;SDS011;16357;52.188;7.838;2023-07-13T02:54:17;5.43;;;2.45;;
29370;SDS011;16357;52.188;7.838;2023-07-13T02:56:44;6.05;;;2.40;;
29370;SDS011;16357;52.188;7.838;2023-07-13T02:59:10;6.03;;;2.10;;
29370;SDS011;16357;52.188;7.838;2023-07-13T03:01:38;7.53;;;2.50;;
29370;SDS011;16357;52.188;7.838;2023-07-13T03:04:04;4.95;;;2.30;;
29370;SDS011;16357;52.188;7.838;2023-07-13T03:06:32;5.13;;;2.33;;
29370;SDS011;16357;52.188;7.838;2023-07-13T03:08:59;4.97;;;2.03;;
29370;SDS011;16357;52.188;7.838;2023-07-13T03:11:26;6.50;;;2.22;;
29370;SDS011;16357;52.188;7.838;2023-07-13T03:13:53;5.85;;;2.75;;
29370;SDS011;16357;52.188;7.838;2023-07-13T03:16:20;5.15;;;2.33;;
29370;SDS011;16357;52.188;7.838;2023-07-13T03:18:47;5.82;;;2.20;;
29370;SDS011;16357;52.188;7.838;2023-07-13T03:21:14;5.07;;;2.38;;
29370;SDS011;16357;52.188;7.838;2023-07-13T03:23:40;4.82;;;2.47;;
29370;SDS011;16357;52.188;7.838;2023-07-13T03:26:10;5.93;;;2.13;;
29370;SDS011;16357;52.188;7.838;2023-07-13T03:28:40;4.35;;;1.95;;
29370;SDS011;16357;52.188;7.838;2023-07-13T03:31:11;3.55;;;1.90;;
29370;SDS011;16357;52.188;7.838;2023-07-13T03:33:40;6.43;;;2.10;;
29370;SDS011;16357;52.188;7.838;2023-07-13T03:36:10;7.10;;;2.55;;
29370;SDS011;16357;52.188;7.838;2023-07-13T03:38:39;9.52;;;2.15;;
29370;SDS011;16357;52.188;7.838;2023-07-13T03:41:05;7.22;;;2.33;;
29370;SDS011;16357;52.188;7.838;2023-07-13T03:43:32;7.25;;;2.42;;
29370;SDS011;16357;52.188;7.838;2023-07-13T03:45:58;7.53;;;2.50;;
29370;SDS011;16357;52.188;7.838;2023-07-13T03:48:25;5.90;;;2.40;;
29370;SDS011;16357;52.188;7.838;2023-07-13T03:50:51;8.25;;;2.47;;
29370;SDS011;16357;52.188;7.838;2023-07-13T03:53:18;6.60;;;2.55;;
29370;SDS011;16357;52.188;7.838;2023-07-13T03:55:45;7.32;;;2.58;;
29370;SDS011;16357;52.188;7.838;2023-07-13T04:01:01;7.90;;;2.50;;
29370;SDS011;16357;52.188;7.838;2023-07-13T04:03:29;5.28;;;2.35;;
29370;SDS011;16357;52.188;7.838;2023-07-13T04:05:59;6.68;;;2.20;;
29370;SDS011;16357;52.188;7.838;2023-07-13T04:08:27;6.00;;;2.40;;
29370;SDS011;16357;52.188;7.838;2023-07-13T04:10:54;7.45;;;2.80;;
29370;SDS011;16357;52.188;7.838;2023-07-13T04:13:21;5.78;;;2.20;;
29370;SDS011;16357;52.188;7.838;2023-07-13T04:15:48;6.95;;;2.47;;
29370;SDS011;16357;52.188;7.838;2023-07-13T04:18:15;5.45;;;2.35;;
29370;SDS011;16357;52.188;7.838;2023-07-13T04:20:42;7.05;;;2.63;;
29370;SDS011;16357;52.188;7.838;2023-07-13T04:23:08;6.97;;;2.53;;
29370;SDS011;16357;52.188;7.838;2023-07-13T04:25:35;7.68;;;2.70;;
29370;SDS011;16357;52.188;7.838;2023-07-13T04:28:02;4.03;;;2.28;;
29370;SDS011;16357;52.188;7.838;2023-07-13T04:30:29;7.40;;;2.50;;
29370;SDS011;16357;52.188;7.838;2023-07-13T04:32:56;7.65;;;2.90;;
29370;SDS011;16357;52.188;7.838;2023-07-13T04:35:23;5.65;;;2.38;;
29370;SDS011;16357;52.188;7.838;2023-07-13T04:37:49;9.93;;;2.67;;
29370;SDS011;16357;52.188;7.838;2023-07-13T04:40:17;6.28;;;2.38;;
29370;SDS011;16357;52.188;7.838;2023-07-13T04:42:44;11.63;;;2.80;;
29370;SDS011;16357;52.188;7.838;2023-07-13T04:45:12;6.07;;;2.45;;
29370;SDS011;16357;52.188;7.838;2023-07-13T04:47:40;7.35;;;2.70;;
29370;SDS011;16357;52.188;7.838;2023-07-13T04:50:07;9.73;;;2.50;;
29370;SDS011;16357;52.188;7.838;2023-07-13T04:52:35;7.38;;;2.50;;
29370;SDS011;16357;52.188;7.838;2023-07-13T04:55:01;4.93;;;2.22;;
29370;SDS011;16357;52.188;7.838;2023-07-13T04:57:28;9.55;;;2.10;;
29370;SDS011;16357;52.188;7.838;2023-07-13T04:59:55;10.10;;;2.35;;
29370;SDS011;16357;52.188;7.838;2023-07-13T05:02:21;6.38;;;2.33;;
29370;SDS011;16357;52.188;7.838;2023-07-13T05:04:48;5.55;;;2.35;;
29370;SDS011;16357;52.188;7.838;2023-07-13T05:07:15;6.57;;;2.10;;
29370;SDS011;16357;52.188;7.838;2023-07-13T05:09:41;5.18;;;1.88;;
29370;SDS011;16357;52.188;7.838;2023-07-13T05:12:08;7.80;;;2.30;;
29370;SDS011;16357;52.188;7.838;2023-07-13T05:14:35;7.57;;;2.05;;
29370;SDS011;16357;52.188;7.838;2023-07-13T05:17:02;7.32;;;2.20;;
29370;SDS011;16357;52.188;7.838;2023-07-13T05:19:29;6.30;;;2.03;;
29370;SDS011;16357;52.188;7.838;2023-07-13T05:21:56;6.10;;;1.95;;
29370;SDS011;16357;52.188;7.838;2023-07-13T05:24:22;10.88;;;2.35;;
29370;SDS011;16357;52.188;7.838;2023-07-13T05:26:51;6.88;;;2.15;;
29370;SDS011;16357;52.188;7.838;2023-07-13T05:29:19;5.18;;;2.00;;
29370;SDS011;16357;52.188;7.838;2023-07-13T05:31:47;5.43;;;2.05;;
29370;SDS011;16357;52.188;7.838;2023-07-13T05:34:13;8.25;;;1.98;;
29370;SDS011;16357;52.188;7.838;2023-07-13T05:36:40;7.07;;;2.20;;
29370;SDS011;16357;52.188;7.838;2023-07-13T05:39:07;8.00;;;1.95;;
29370;SDS011;16357;52.188;7.838;2023-07-13T05:41:33;9.82;;;2.35;;
29370;SDS011;16357;52.188;7.838;2023-07-13T05:43:59;7.28;;;2.30;;
29370;SDS011;16357;52.188;7.838;2023-07-13T05:46:27;5.10;;;1.90;;
29370;SDS011;16357;52.188;7.838;2023-07-13T05:48:53;7.50;;;1.80;;
29370;SDS011;16357;52.188;7.838;2023-07-13T05:51:20;4.28;;;1.90;;
29370;SDS011;16357;52.188;7.838;2023-07-13T05:53:46;5.07;;;1.80;;
29370;SDS011;16357;52.188;7.838;2023-07-13T05:56:13;7.53;;;2.20;;
29370;SDS011;16357;52.188;7.838;2023-07-13T05:58:39;6.13;;;2.03;;
29370;SDS011;16357;52.188;7.838;2023-07-13T06:01:08;7.45;;;2.05;;
29370;SDS011;16357;52.188;7.838;2023-07-13T06:03:37;5.15;;;1.95;;
29370;SDS011;16357;52.188;7.838;2023-07-13T06:06:07;4.88;;;2.10;;
29370;SDS011;16357;52.188;7.838;2023-07-13T06:08:35;5.40;;;1.90;;
29370;SDS011;16357;52.188;7.838;2023-07-13T06:11:04;7.30;;;2.10;;
29370;SDS011;16357;52.188;7.838;2023-07-13T06:18:32;9.23;;;2.00;;
29370;SDS011;16357;52.188;7.838;2023-07-13T06:20:59;9.68;;;2.20;;
29370;SDS011;16357;52.188;7.838;2023-07-13T06:23:26;6.78;;;2.17;;
29370;SDS011;16357;52.188;7.838;2023-07-13T06:25:53;5.15;;;2.00;;
29370;SDS011;16357;52.188;7.838;2023-07-13T06:28:19;6.28;;;1.88;;
29370;SDS011;16357;52.188;7.838;2023-07-13T06:30:46;5.85;;;2.40;;
29370;SDS011;16357;52.188;7.838;2023-07-13T06:33:12;6.43;;;2.45;;
29370;SDS011;16357;52.188;7.838;2023-07-13T06:35:39;6.38;;;2.13;;
29370;SDS011;16357;52.188;7.838;2023-07-13T06:38:05;7.53;;;2.40;;
29370;SDS011;16357;52.188;7.838;2023-07-13T06:40:32;9.00;;;2.65;;
29370;SDS011;16357;52.188;7.838;2023-07-13T06:42:58;9.95;;;2.67;;
29370;SDS011;16357;52.188;7.838;2023-07-13T06:45:25;9.60;;;2.38;;
29370;SDS011;16357;52.188;7.838;2023-07-13T06:47:51;7.45;;;2.63;;
29370;SDS011;16357;52.188;7.838;2023-07-13T06:50:18;8.85;;;2.45;;
29370;SDS011;16357;52.188;7.838;2023-07-13T06:52:44;9.32;;;3.15;;
29370;SDS011;16357;52.188;7.838;2023-07-13T06:55:11;5.30;;;2.30;;
29370;SDS011;16357;52.188;7.838;2023-07-13T06:57:37;6.28;;;2.22;;
29370;SDS011;16357;52.188;7.838;2023-07-13T07:00:04;7.32;;;2.60;;
29370;SDS011;16357;52.188;7.838;2023-07-13T07:02:32;7.60;;;2.50;;
29370;SDS011;16357;52.188;7.838;2023-07-13T07:04:59;6.53;;;2.55;;
29370;SDS011;16357;52.188;7.838;2023-07-13T07:07:27;9.88;;;2.50;;
29370;SDS011;16357;52.188;7.838;2023-07-13T07:09:53;7.28;;;2.60;;
29370;SDS011;16357;52.188;7.838;2023-07-13T07:12:19;8.75;;;2.50;;
29370;SDS011;16357;52.188;7.838;2023-07-13T07:14:46;4.88;;;1.92;;
29370;SDS011;16357;52.188;7.838;2023-07-13T07:17:15;9.30;;;2.75;;
29370;SDS011;16357;52.188;7.838;2023-07-13T07:19:41;8.50;;;3.08;;
29370;SDS011;16357;52.188;7.838;2023-07-13T07:22:08;7.38;;;2.53;;
29370;SDS011;16357;52.188;7.838;2023-07-13T07:24:34;12.88;;;2.83;;
29370;SDS011;16357;52.188;7.838;2023-07-13T07:27:01;9.13;;;2.50;;
29370;SDS011;16357;52.188;7.838;2023-07-13T07:29:30;8.98;;;2.60;;
29370;SDS011;16357;52.188;7.838;2023-07-13T07:31:59;8.35;;;2.63;;
29370;SDS011;16357;52.188;7.838;2023-07-13T07:34:32;9.43;;;2.33;;
29370;SDS011;16357;52.188;7.838;2023-07-13T07:36:59;7.72;;;2.40;;
29370;SDS011;16357;52.188;7.838;2023-07-13T07:39:30;8.48;;;2.33;;
29370;SDS011;16357;52.188;7.838;2023-07-13T07:41:56;7.38;;;2.60;;
29370;SDS011;16357;52.188;7.838;2023-07-13T07:44:23;5.22;;;2.30;;
29370;SDS011;16357;52.188;7.838;2023-07-13T07:46:50;8.55;;;2.30;;
29370;SDS011;16357;52.188;7.838;2023-07-13T07:49:19;6.15;;;2.25;;
29370;SDS011;16357;52.188;7.838;2023-07-13T07:51:46;7.03;;;2.72;;
29370;SDS011;16357;52.188;7.838;2023-07-13T07:54:13;5.70;;;2.28;;
29370;SDS011;16357;52.188;7.838;2023-07-13T07:56:51;7.47;;;2.40;;
29370;SDS011;16357;52.188;7.838;2023-07-13T07:59:21;5.35;;;1.98;;
29370;SDS011;16357;52.188;7.838;2023-07-13T08:01:51;8.77;;;2.55;;
29370;SDS011;16357;52.188;7.838;2023-07-13T08:04:20;4.85;;;1.85;;
29370;SDS011;16357;52.188;7.838;2023-07-13T08:06:49;6.68;;;2.47;;
29370;SDS011;16357;52.188;7.838;2023-07-13T08:09:16;7.22;;;2.42;;
29370;SDS011;16357;52.188;7.838;2023-07-13T08:11:42;5.78;;;2.40;;
29370;SDS011;16357;52.188;7.838;2023-07-13T08:14:12;6.88;;;2.42;;
29370;SDS011;16357;52.188;7.838;2023-07-13T08:16:38;6.47;;;2.03;;
29370;SDS011;16357;52.188;7.838;2023-07-13T08:19:05;4.85;;;2.40;;
29370;SDS011;16357;52.188;7.838;2023-07-13T08:21:32;7.20;;;2.22;;
29370;SDS011;16357;52.188;7.838;2023-07-13T08:23:58;6.03;;;2.05;;
29370;SDS011;16357;52.188;7.838;2023-07-13T08:26:25;6.30;;;2.15;;
29370;SDS011;16357;52.188;7.838;2023-07-13T08:28:51;5.57;;;2.28;;
29370;SDS011;16357;52.188;7.838;2023-07-13T08:31:18;4.90;;;2.22;;
29370;SDS011;16357;52.188;7.838;2023-07-13T08:33:44;4.55;;;2.22;;
29370;SDS011;16357;52.188;7.838;2023-07-13T08:36:11;7.55;;;2.35;;
29370;SDS011;16357;52.188;7.838;2023-07-13T08:38:37;7.43;;;2.10;;
29370;SDS011;16357;52.188;7.838;2023-07-13T08:41:16;6.72;;;2.70;;
29370;SDS011;16357;52.188;7.838;2023-07-13T08:43:45;5.47;;;2.42;;
29370;SDS011;16357;52.188;7.838;2023-07-13T08:46:24;6.00;;;2.00;;
29370;SDS011;16357;52.188;7.838;2023-07-13T08:48:58;5.60;;;2.20;;
29370;SDS011;16357;52.188;7.838;2023-07-13T08:54:28;4.72;;;2.40;;
29370;SDS011;16357;52.188;7.838;2023-07-13T08:56:58;9.23;;;2.58;;
29370;SDS011;16357;52.188;7.838;2023-07-13T08:59:28;6.60;;;2.40;;
29370;SDS011;16357;52.188;7.838;2023-07-13T09:04:50;5.55;;;2.55;;
29370;SDS011;16357;52.188;7.838;2023-07-13T09:07:26;5.07;;;2.40;;
29370;SDS011;16357;52.188;7.838;2023-07-13T09:15:17;6.97;;;2.90;;
29370;SDS011;16357;52.188;7.838;2023-07-13T09:18:19;9.98;;;2.97;;
29370;SDS011;16357;52.188;7.838;2023-07-13T09:21:00;5.78;;;2.55;;
29370;SDS011;16357;52.188;7.838;2023-07-13T09:23:32;5.85;;;2.55;;
29370;SDS011;16357;52.188;7.838;2023-07-13T09:26:00;7.75;;;2.42;;
29370;SDS011;16357;52.188;7.838;2023-07-13T09:28:33;7.05;;;2.47;;
29370;SDS011;16357;52.188;7.838;2023-07-13T09:33:41;4.70;;;2.22;;
29370;SDS011;16357;52.188;7.838;2023-07-13T09:36:50;5.70;;;2.60;;
29370;SDS011;16357;52.188;7.838;2023-07-13T09:39:04;7.35;;;2.47;;
29370;SDS011;16357;52.188;7.838;2023-07-13T09:44:55;5.78;;;2.20;;
29370;SDS011;16357;52.188;7.838;2023-07-13T09:47:26;6.30;;;2.28;;
29370;SDS011;16357;52.188;7.838;2023-07-13T09:49:59;5.03;;;2.40;;
29370;SDS011;16357;52.188;7.838;2023-07-13T09:52:39;3.92;;;2.45;;
29370;SDS011;16357;52.188;7.838;2023-07-13T09:55:17;7.03;;;3.00;;
29370;SDS011;16357;52.188;7.838;2023-07-13T09:57:49;5.85;;;2.10;;
29370;SDS011;16357;52.188;7.838;2023-07-13T10:00:21;4.57;;;2.00;;
29370;SDS011;16357;52.188;7.838;2023-07-13T10:05:48;3.63;;;2.17;;
29370;SDS011;16357;52.188;7.838;2023-07-13T10:10:57;6.80;;;2.80;;
29370;SDS011;16357;52.188;7.838;2023-07-13T10:13:31;4.28;;;2.22;;
29370;SDS011;16357;52.188;7.838;2023-07-13T10:16:04;5.65;;;2.25;;
29370;SDS011;16357;52.188;7.838;2023-07-13T10:18:37;5.57;;;2.13;;
29370;SDS011;16357;52.188;7.838;2023-07-13T10:21:22;6.82;;;2.42;;
29370;SDS011;16357;52.188;7.838;2023-07-13T10:24:15;5.53;;;2.13;;
29370;SDS011;16357;52.188;7.838;2023-07-13T10:26:48;5.22;;;2.50;;
29370;SDS011;16357;52.188;7.838;2023-07-13T10:29:19;4.68;;;2.00;;
29370;SDS011;16357;52.188;7.838;2023-07-13T10:31:49;4.97;;;2.22;;
29370;SDS011;16357;52.188;7.838;2023-07-13T10:34:16;5.90;;;2.17;;
29370;SDS011;16357;52.188;7.838;2023-07-13T10:36:45;7.28;;;2.20;;
29370;SDS011;16357;52.188;7.838;2023-07-13T10:39:17;4.47;;;2.00;;
29370;SDS011;16357;52.188;7.838;2023-07-13T10:41:47;5.55;;;2.20;;
29370;SDS011;16357;52.188;7.838;2023-07-13T10:44:23;4.90;;;2.20;;
29370;SDS011;16357;52.188;7.838;2023-07-13T10:46:53;7.43;;;2.38;;
29370;SDS011;16357;52.188;7.838;2023-07-13T10:49:23;5.60;;;2.55;;
29370;SDS011;16357;52.188;7.838;2023-07-13T10:51:54;6.32;;;2.38;;
29370;SDS011;16357;52.188;7.838;2023-07-13T10:54:21;5.07;;;2.28;;
29370;SDS011;16357;52.188;7.838;2023-07-13T10:57:06;4.63;;;2.40;;
29370;SDS011;16357;52.188;7.838;2023-07-13T10:59:34;4.90;;;2.20;;
29370;SDS011;16357;52.188;7.838;2023-07-13T11:04:40;5.72;;;2.35;;
29370;SDS011;16357;52.188;7.838;2023-07-13T11:09:57;7.30;;;2.70;;
29370;SDS011;16357;52.188;7.838;2023-07-13T11:19:54;9.40;;;2.83;;
29370;SDS011;16357;52.188;7.838;2023-07-13T11:22:46;6.30;;;2.40;;
29370;SDS011;16357;52.188;7.838;2023-07-13T11:25:33;5.75;;;2.38;;
29370;SDS011;16357;52.188;7.838;2023-07-13T11:30:37;6.15;;;2.38;;
29370;SDS011;16357;52.188;7.838;2023-07-13T11:33:22;3.45;;;1.67;;
29370;SDS011;16357;52.188;7.838;2023-07-13T11:38:54;4.20;;;1.77;;
29370;SDS011;16357;52.188;7.838;2023-07-13T11:41:31;4.78;;;1.90;;
29370;SDS011;16357;52.188;7.838;2023-07-13T11:44:06;4.60;;;2.00;;
29370;SDS011;16357;52.188;7.838;2023-07-13T11:46:44;4.72;;;1.90;;
29370;SDS011;16357;52.188;7.838;2023-07-13T11:49:17;5.30;;;2.00;;
29370;SDS011;16357;52.188;7.838;2023-07-13T11:51:44;4.50;;;1.70;;
29370;SDS011;16357;52.188;7.838;2023-07-13T11:54:23;3.53;;;1.70;;
29370;SDS011;16357;52.188;7.838;2023-07-13T11:56:53;3.42;;;2.00;;
29370;SDS011;16357;52.188;7.838;2023-07-13T11:59:23;5.45;;;1.88;;
29370;SDS011;16357;52.188;7.838;2023-07-13T12:01:52;6.32;;;1.77;;
29370;SDS011;16357;52.188;7.838;2023-07-13T12:04:28;3.58;;;1.48;;
29370;SDS011;16357;52.188;7.838;2023-07-13T12:07:06;4.65;;;1.60;;
29370;SDS011;16357;52.188;7.838;2023-07-13T12:09:40;3.65;;;2.00;;
29370;SDS011;16357;52.188;7.838;2023-07-13T12:12:11;4.18;;;1.80;;
29370;SDS011;16357;52.188;7.838;2023-07-13T12:14:40;3.92;;;2.10;;
29370;SDS011;16357;52.188;7.838;2023-07-13T12:17:18;4.90;;;1.88;;
29370;SDS011;16357;52.188;7.838;2023-07-13T12:19:47;3.88;;;1.85;;
29370;SDS011;16357;52.188;7.838;2023-07-13T12:22:14;4.32;;;1.95;;
29370;SDS011;16357;52.188;7.838;2023-07-13T12:24:44;4.05;;;2.20;;
29370;SDS011;16357;52.188;7.838;2023-07-13T12:27:20;5.07;;;2.30;;
29370;SDS011;16357;52.188;7.838;2023-07-13T12:29:50;8.38;;;2.22;;
29370;SDS011;16357;52.188;7.838;2023-07-13T12:32:27;7.75;;;2.60;;
29370;SDS011;16357;52.188;7.838;2023-07-13T12:35:04;4.50;;;2.00;;
29370;SDS011;16357;52.188;7.838;2023-07-13T12:37:46;4.97;;;2.28;;
29370;SDS011;16357;52.188;7.838;2023-07-13T12:40:14;4.03;;;1.92;;
29370;SDS011;16357;52.188;7.838;2023-07-13T12:42:42;4.97;;;2.15;;
29370;SDS011;16357;52.188;7.838;2023-07-13T12:45:24;7.05;;;2.40;;
29370;SDS011;16357;52.188;7.838;2023-07-13T12:47:54;3.88;;;2.08;;
29370;SDS011;16357;52.188;7.838;2023-07-13T12:50:30;2.25;;;1.88;;
29370;SDS011;16357;52.188;7.838;2023-07-13T12:53:01;3.20;;;1.80;;
29370;SDS011;16357;52.188;7.838;2023-07-13T12:55:30;3.88;;;1.98;;
29370;SDS011;16357;52.188;7.838;2023-07-13T12:58:03;3.15;;;2.00;;
29370;SDS011;16357;52.188;7.838;2023-07-13T13:00:31;3.10;;;1.90;;
29370;SDS011;16357;52.188;7.838;2023-07-13T13:03:12;2.35;;;1.88;;
29370;SDS011;16357;52.188;7.838;2023-07-13T13:06:02;6.65;;;2.40;;
29370;SDS011;16357;52.188;7.838;2023-07-13T13:08:32;4.55;;;2.20;;
29370;SDS011;16357;52.188;7.838;2023-07-13T13:11:02;4.53;;;2.20;;
29370;SDS011;16357;52.188;7.838;2023-07-13T13:13:29;4.82;;;2.28;;
29370;SDS011;16357;52.188;7.838;2023-07-13T13:15:56;4.78;;;2.30;;
29370;SDS011;16357;52.188;7.838;2023-07-13T13:18:24;6.15;;;2.67;;
29370;SDS011;16357;52.188;7.838;2023-07-13T13:20:50;4.85;;;2.33;;
29370;SDS011;16357;52.188;7.838;2023-07-13T13:23:19;4.57;;;2.50;;
29370;SDS011;16357;52.188;7.838;2023-07-13T13:25:48;6.65;;;2.90;;
29370;SDS011;16357;52.188;7.838;2023-07-13T13:28:18;4.57;;;3.05;;
29370;SDS011;16357;52.188;7.838;2023-07-13T13:30:47;5.10;;;2.67;;
29370;SDS011;16357;52.188;7.838;2023-07-13T13:33:16;6.80;;;3.40;;
29370;SDS011;16357;52.188;7.838;2023-07-13T13:35:45;4.28;;;2.75;;
29370;SDS011;16357;52.188;7.838;2023-07-13T13:38:17;12.98;;;3.83;;
29370;SDS011;16357;52.188;7.838;2023-07-13T13:40:48;16.17;;;2.60;;
29370;SDS011;16357;52.188;7.838;2023-07-13T13:43:18;2.05;;;1.30;;
29370;SDS011;16357;52.188;7.838;2023-07-13T13:45:46;0.70;;;0.70;;
29370;SDS011;16357;52.188;7.838;2023-07-13T13:48:14;0.65;;;0.57;;
29370;SDS011;16357;52.188;7.838;2023-07-13T13:50:42;0.52;;;0.43;;
29370;SDS011;16357;52.188;7.838;2023-07-13T13:53:12;0.38;;;0.38;;
29370;SDS011;16357;52.188;7.838;2023-07-13T13:55:42;0.25;;;0.25;;
29370;SDS011;16357;52.188;7.838;2023-07-13T13:58:09;0.30;;;0.30;;
29370;SDS011;16357;52.188;7.838;2023-07-13T14:00:37;0.30;;;0.30;;
29370;SDS011;16357;52.188;7.838;2023-07-13T14:03:08;0.30;;;0.30;;
29370;SDS011;16357;52.188;7.838;2023-07-13T14:05:41;0.30;;;0.30;;
29370;SDS011;16357;52.188;7.838;2023-07-13T14:08:12;0.20;;;0.20;;
29370;SDS011;16357;52.188;7.838;2023-07-13T14:10:40;0.10;;;0.10;;
29370;SDS011;16357;52.188;7.838;2023-07-13T14:13:14;0.20;;;0.20;;
29370;SDS011;16357;52.188;7.838;2023-07-13T14:15:44;0.20;;;0.20;;
29370;SDS011;16357;52.188;7.838;2023-07-13T14:18:11;0.20;;;0.20;;
29370;SDS011;16357;52.188;7.838;2023-07-13T14:20:38;0.10;;;0.10;;
29370;SDS011;16357;52.188;7.838;2023-07-13T14:23:04;0.10;;;0.10;;
29370;SDS011;16357;52.188;7.838;2023-07-13T14:25:31;0.10;;;0.10;;
29370;SDS011;16357;52.188;7.838;2023-07-13T14:27:58;0.13;;;0.13;;
29370;SDS011;16357;52.188;7.838;2023-07-13T14:30:26;0.10;;;0.10;;
29370;SDS011;16357;52.188;7.838;2023-07-13T14:32:53;0.10;;;0.10;;
29370;SDS011;16357;52.188;7.838;2023-07-13T14:35:20;0.20;;;0.20;;
29370;SDS011;16357;52.188;7.838;2023-07-13T14:37:49;0.10;;;0.10;;
29370;SDS011;16357;52.188;7.838;2023-07-13T14:40:17;0.10;;;0.10;;
29370;SDS011;16357;52.188;7.838;2023-07-13T14:42:48;0.10;;;0.10;;
29370;SDS011;16357;52.188;7.838;2023-07-13T14:45:15;0.10;;;0.10;;
29370;SDS011;16357;52.188;7.838;2023-07-13T14:47:44;0.10;;;0.10;;
29370;SDS011;16357;52.188;7.838;2023-07-13T14:50:12;0.10;;;0.10;;
29370;SDS011;16357;52.188;7.838;2023-07-13T14:52:46;0.20;;;0.20;;
29370;SDS011;16357;52.188;7.838;2023-07-13T14:55:15;0.10;;;0.10;;
29370;SDS011;16357;52.188;7.838;2023-07-13T14:57:46;0.10;;;0.10;;
29370;SDS011;16357;52.188;7.838;2023-07-13T15:00:16;0.10;;;0.10;;
29370;SDS011;16357;52.188;7.838;2023-07-13T15:02:50;0.20;;;0.20;;
29370;SDS011;16357;52.188;7.838;2023-07-13T15:05:21;0.10;;;0.10;;
29370;SDS011;16357;52.188;7.838;2023-07-13T15:07:51;0.10;;;0.10;;
29370;SDS011;16357;52.188;7.838;2023-07-13T15:10:21;0.10;;;0.10;;
29370;SDS011;16357;52.188;7.838;2023-07-13T15:12:51;0.10;;;0.10;;
29370;SDS011;16357;52.188;7.838;2023-07-13T15:15:18;0.10;;;0.10;;
29370;SDS011;16357;52.188;7.838;2023-07-13T15:17:46;0.10;;;0.10;;
29370;SDS011;16357;52.188;7.838;2023-07-13T15:22:51;0.10;;;0.10;;
29370;SDS011;16357;52.188;7.838;2023-07-13T15:25:18;0.10;;;0.10;;
29370;SDS011;16357;52.188;7.838;2023-07-13T15:27:54;0.10;;;0.10;;
29370;SDS011;16357;52.188;7.838;2023-07-13T15:30:25;0.10;;;0.10;;
29370;SDS011;16357;52.188;7.838;2023-07-13T15:32:55;0.10;;;0.10;;
29370;SDS011;16357;52.188;7.838;2023-07-13T15:35:26;0.10;;;0.10;;
29370;SDS011;16357;52.188;7.838;2023-07-13T15:37:54;0.10;;;0.10;;
29370;SDS011;16357;52.188;7.838;2023-07-13T15:40:20;0.10;;;0.10;;
29370;SDS011;16357;52.188;7.838;2023-07-13T15:42:51;0.10;;;0.10;;
29370;SDS011;16357;52.188;7.838;2023-07-13T15:45:22;0.10;;;0.10;;
29370;SDS011;16357;52.188;7.838;2023-07-13T15:47:53;0.10;;;0.10;;
29370;SDS011;16357;52.188;7.838;2023-07-13T15:50:21;0.10;;;0.10;;
29370;SDS011;16357;52.188;7.838;2023-07-13T15:52:52;0.10;;;0.10;;